Time;durP1;ratioP1;P1;durP2;ratioP2;P2;SDS_P1;SDS_P2;PMS_P1;PMS_P2;Temp;Humidity;BMP_temperature;BMP_pressure;BME280_temperature;BME280_humidity;BME280_pressure;Samples;Min_cycle;Max_cycle;Signal;HPM_P1;HPM_P2
2023/02/25 00:01:39;;;;;;;;;;;;;;;7.59;69.83;95066.14;109024;1250;100019;-72
2023/02/25 00:04:07;;;;;;;;;;;;;;;7.59;69.76;95064.04;108919;1249;95615;-72
2023/02/25 00:06:35;;;;;;;;;;;;;;;7.58;69.95;95060.23;109042;1250;95605;-72
2023/02/25 00:09:05;;;;;;;;;;;;;;;7.58;69.79;95053.45;109031;1250;103459;-75
2023/02/25 00:11:33;;;;;;;;;;;;;;;7.54;69.82;95053.88;109053;1250;101344;-75
2023/02/25 00:14:01;;;;;;;;;;;;;;;7.53;69.79;95046.02;108969;1250;100117;-75
2023/02/25 00:16:31;;;;;;;;;;;;;;;7.55;69.96;95044.81;109055;1249;95629;-72
2023/02/25 00:18:59;;;;;;;;;;;;;;;7.57;69.90;95037.33;109024;1250;95633;-71
2023/02/25 00:21:28;;;;;;;;;;;;;;;7.58;69.90;95027.56;109025;1250;103479;-73
2023/02/25 00:23:56;;;;;;;;;;;;;;;7.59;69.92;95020.27;108999;1250;101311;-72
2023/02/25 00:26:24;;;;;;;;;;;;;;;7.59;69.85;95011.04;108666;1250;99894;-73
2023/02/25 00:28:52;;;;;;;;;;;;;;;7.58;69.94;95005.08;108728;1249;95904;-72
2023/02/25 00:31:21;;;;;;;;;;;;;;;7.55;69.92;95003.74;108746;1249;95688;-72
2023/02/25 00:33:50;;;;;;;;;;;;;;;7.54;70.02;95003.94;108705;1251;103454;-71
2023/02/25 00:36:20;;;;;;;;;;;;;;;7.49;70.06;94998.99;109022;1250;101858;-72
2023/02/25 00:38:49;;;;;;;;;;;;;;;7.44;70.01;94992.06;108969;1250;100007;-73
2023/02/25 00:41:19;;;;;;;;;;;;;;;7.40;70.12;94997.09;108834;1250;96433;-72
2023/02/25 00:43:54;;;;;;;;;;;;;;;7.36;70.24;94989.45;109055;1250;95634;-70
2023/02/25 00:46:22;;;;;;;;;;;;;;;7.33;70.34;94993.54;109003;1250;102273;-72
2023/02/25 00:48:51;;;;;;;;;;;;;;;7.34;70.29;94985.45;108679;1250;109675;-74
2023/02/25 00:51:20;;;;;;;;;;;;;;;7.38;70.45;94991.70;108981;1249;100090;-72
2023/02/25 00:53:48;;;;;;;;;;;;;;;7.41;70.42;94990.83;109009;1250;95968;-72
2023/02/25 00:56:18;;;;;;;;;;;;;;;7.43;70.21;94983.67;108680;1251;96014;-73
2023/02/25 00:58:47;;;;;;;;;;;;;;;7.47;70.15;94973.52;108873;1250;103432;-73
2023/02/25 01:01:21;;;;;;;;;;;;;;;7.51;70.13;94973.19;109030;1250;100714;-73
2023/02/25 01:03:50;;;;;;;;;;;;;;;7.53;70.25;94960.65;108874;1250;100150;-75
2023/02/25 01:06:18;;;;;;;;;;;;;;;7.55;70.26;94951.23;108978;1250;95546;-72
2023/02/25 01:08:46;;;;;;;;;;;;;;;7.56;70.07;94950.11;108713;1249;95610;-71
2023/02/25 01:11:19;;;;;;;;;;;;;;;7.57;70.18;94942.23;108694;1250;103579;-75
2023/02/25 01:13:48;;;;;;;;;;;;;;;7.59;70.10;94940.91;109024;1250;101638;-75
2023/02/25 01:16:18;;;;;;;;;;;;;;;7.60;70.10;94941.14;108967;1249;99875;-76
2023/02/25 01:18:46;;;;;;;;;;;;;;;7.62;70.08;94942.00;108998;1250;95565;-74
2023/02/25 01:21:16;;;;;;;;;;;;;;;7.62;70.22;94939.73;109025;1250;95601;-72
2023/02/25 01:23:45;;;;;;;;;;;;;;;7.63;70.05;94931.70;109015;1250;103767;-72
2023/02/25 01:26:13;;;;;;;;;;;;;;;7.64;70.17;94928.86;109033;1249;101384;-73
2023/02/25 01:28:42;;;;;;;;;;;;;;;7.65;70.13;94929.09;108961;1249;100467;-74
2023/02/25 01:31:16;;;;;;;;;;;;;;;7.66;70.04;94922.70;108932;1250;95574;-73
2023/02/25 01:33:44;;;;;;;;;;;;;;;7.66;70.16;94919.17;108949;1251;95941;-73
2023/02/25 01:36:12;;;;;;;;;;;;;;;7.66;70.42;94917.13;109011;1249;103402;-73
2023/02/25 01:38:40;;;;;;;;;;;;;;;7.65;70.49;94920.28;108662;1250;101086;-74
2023/02/25 01:41:08;;;;;;;;;;;;;;;7.62;70.58;94921.17;108943;1249;100388;-73
2023/02/25 01:43:36;;;;;;;;;;;;;;;7.56;70.50;94925.95;108990;1249;95734;-75
2023/02/25 01:46:04;;;;;;;;;;;;;;;7.50;70.57;94928.02;108999;1250;95619;-73
2023/02/25 01:48:35;;;;;;;;;;;;;;;7.44;70.91;94930.48;108660;1250;104641;-74
2023/02/25 01:51:06;;;;;;;;;;;;;;;7.40;70.86;94936.02;108997;1250;101439;-72
2023/02/25 01:53:36;;;;;;;;;;;;;;;7.31;70.97;94940.95;108946;1250;99885;-71
2023/02/25 01:56:05;;;;;;;;;;;;;;;7.20;71.30;94939.60;109024;1250;95595;-73
2023/02/25 01:58:34;;;;;;;;;;;;;;;7.10;71.29;94936.73;108994;1250;95641;-77
2023/02/25 02:01:02;;;;;;;;;;;;;;;6.99;71.53;94934.52;108689;1251;113244;-75
2023/02/25 02:03:32;;;;;;;;;;;;;;;6.91;71.64;94930.20;108763;1249;101267;-73
2023/02/25 02:06:11;;;;;;;;;;;;;;;6.83;71.78;94929.95;108786;1249;100074;-76
2023/02/25 02:08:40;;;;;;;;;;;;;;;6.76;71.88;94921.98;108929;1249;95795;-75
2023/02/25 02:11:08;;;;;;;;;;;;;;;6.73;72.09;94917.77;109065;1249;95570;-73
2023/02/25 02:13:39;;;;;;;;;;;;;;;6.71;72.20;94915.90;108976;1250;103358;-73
2023/02/25 02:16:09;;;;;;;;;;;;;;;6.68;72.40;94918.16;109029;1250;101331;-73
2023/02/25 02:18:42;;;;;;;;;;;;;;;6.64;72.62;94920.57;108934;1250;100100;-73
2023/02/25 02:21:41;;;;;;;;;;;;;;;6.61;72.79;94929.08;108987;1250;95549;-76
2023/02/25 02:24:09;;;;;;;;;;;;;;;6.61;72.90;94922.85;109017;1250;95567;-74
2023/02/25 02:26:47;;;;;;;;;;;;;;;6.58;73.11;94923.66;109022;1249;103604;-76
2023/02/25 02:29:31;;;;;;;;;;;;;;;6.56;73.14;94931.40;109031;1250;100986;-77
2023/02/25 02:32:07;;;;;;;;;;;;;;;6.55;73.20;94938.79;108982;1249;99956;-73
2023/02/25 02:34:48;;;;;;;;;;;;;;;6.52;73.05;94939.22;108943;1250;95539;-73
2023/02/25 02:37:27;;;;;;;;;;;;;;;6.45;72.85;94941.69;108677;1250;96190;-73
2023/02/25 02:39:55;;;;;;;;;;;;;;;6.36;72.97;94940.69;108712;1251;103222;-73
2023/02/25 02:42:23;;;;;;;;;;;;;;;6.28;72.80;94934.45;109049;1250;101755;-73
2023/02/25 02:44:59;;;;;;;;;;;;;;;6.21;72.87;94931.92;108996;1250;99974;-76
2023/02/25 02:47:33;;;;;;;;;;;;;;;6.11;72.83;94930.39;108774;1250;95952;-73
2023/02/25 02:50:04;;;;;;;;;;;;;;;6.02;72.74;94919.77;109015;1251;95605;-73
2023/02/25 02:52:35;;;;;;;;;;;;;;;5.96;72.91;94919.38;109015;1251;102322;-73
2023/02/25 02:55:24;;;;;;;;;;;;;;;5.88;73.08;94915.92;108977;1250;101860;-74
2023/02/25 02:57:55;;;;;;;;;;;;;;;5.84;73.27;94916.04;109036;1250;99610;-73
2023/02/25 03:00:25;;;;;;;;;;;;;;;5.81;73.56;94923.21;109007;1250;95571;-75
2023/02/25 03:02:59;;;;;;;;;;;;;;;5.76;73.62;94926.34;109083;1249;95663;-72
2023/02/25 03:05:29;;;;;;;;;;;;;;;5.72;73.62;94913.20;109036;1250;103515;-73
2023/02/25 03:08:03;;;;;;;;;;;;;;;5.70;73.75;94917.30;109059;1249;101462;-73
2023/02/25 03:10:32;;;;;;;;;;;;;;;5.71;73.84;94921.83;108958;1249;100414;-73
2023/02/25 03:13:00;;;;;;;;;;;;;;;5.74;73.99;94920.53;108985;1249;95628;-73
2023/02/25 03:15:29;;;;;;;;;;;;;;;5.73;74.09;94921.95;109027;1250;95675;-71
2023/02/25 03:17:59;;;;;;;;;;;;;;;5.71;74.14;94931.51;109001;1249;104390;-75
2023/02/25 03:20:37;;;;;;;;;;;;;;;5.70;74.20;94929.92;108912;1251;101214;-74
2023/02/25 03:23:07;;;;;;;;;;;;;;;5.71;74.23;94934.77;108972;1250;100016;-73
2023/02/25 03:25:45;;;;;;;;;;;;;;;5.73;74.31;94926.77;108950;1249;95967;-73
2023/02/25 03:28:24;;;;;;;;;;;;;;;5.74;74.51;94926.70;109015;1249;95750;-74
2023/02/25 03:30:55;;;;;;;;;;;;;;;5.73;74.47;94920.67;109008;1251;103719;-73
2023/02/25 03:33:33;;;;;;;;;;;;;;;5.68;74.53;94919.73;109002;1250;101342;-73
2023/02/25 03:36:03;;;;;;;;;;;;;;;5.66;74.53;94917.63;108586;1251;100051;-73
2023/02/25 03:38:33;;;;;;;;;;;;;;;5.66;74.49;94915.38;108698;1250;95655;-73
2023/02/25 03:41:04;;;;;;;;;;;;;;;5.66;74.46;94912.86;109025;1250;95726;-73
2023/02/25 03:43:36;;;;;;;;;;;;;;;5.66;74.45;94909.32;108995;1250;103610;-74
2023/02/25 03:46:05;;;;;;;;;;;;;;;5.64;74.49;94908.70;109026;1249;101397;-74
2023/02/25 03:48:35;;;;;;;;;;;;;;;5.65;74.62;94904.98;108988;1250;99921;-74
2023/02/25 03:51:04;;;;;;;;;;;;;;;5.67;74.68;94901.30;108839;1250;95595;-75
2023/02/25 03:53:33;;;;;;;;;;;;;;;5.67;74.54;94903.83;109002;1250;95646;-72
2023/02/25 03:56:05;;;;;;;;;;;;;;;5.67;74.79;94902.11;109017;1250;111748;-75
2023/02/25 03:58:34;;;;;;;;;;;;;;;5.68;74.71;94898.09;109056;1250;101327;-74
2023/02/25 04:01:05;;;;;;;;;;;;;;;5.67;74.78;94896.54;108992;1250;99979;-73
2023/02/25 04:03:33;;;;;;;;;;;;;;;5.66;74.84;94894.33;109006;1251;95804;-75
2023/02/25 04:06:01;;;;;;;;;;;;;;;5.66;74.85;94890.84;108641;1251;97210;-73
2023/02/25 04:08:29;;;;;;;;;;;;;;;5.65;74.91;94889.61;109003;1251;103437;-72
2023/02/25 04:10:57;;;;;;;;;;;;;;;5.63;74.92;94885.60;108997;1250;101489;-73
2023/02/25 04:13:25;;;;;;;;;;;;;;;5.62;74.96;94887.88;108985;1250;99520;-73
2023/02/25 04:15:53;;;;;;;;;;;;;;;5.62;75.02;94885.73;109035;1249;95522;-73
2023/02/25 04:18:25;;;;;;;;;;;;;;;5.61;75.03;94881.55;108752;1251;96042;-73
2023/02/25 04:20:53;;;;;;;;;;;;;;;5.61;75.12;94881.34;109014;1250;103496;-73
2023/02/25 04:23:21;;;;;;;;;;;;;;;5.60;74.96;94886.25;109024;1250;100497;-73
2023/02/25 04:25:49;;;;;;;;;;;;;;;5.58;74.76;94894.45;108920;1251;99975;-75
2023/02/25 04:28:18;;;;;;;;;;;;;;;5.53;74.59;94900.05;108866;1250;95808;-75
2023/02/25 04:30:46;;;;;;;;;;;;;;;5.50;74.63;94900.09;108997;1250;95665;-73
2023/02/25 04:33:14;;;;;;;;;;;;;;;5.49;74.70;94902.20;108971;1249;103411;-73
2023/02/25 04:35:43;;;;;;;;;;;;;;;5.48;74.85;94899.39;108715;1251;101090;-72
2023/02/25 04:38:11;;;;;;;;;;;;;;;5.45;74.83;94900.10;108646;1249;98936;-78
2023/02/25 04:40:38;;;;;;;;;;;;;;;5.41;74.86;94896.40;108955;1249;95532;-73
2023/02/25 04:43:08;;;;;;;;;;;;;;;5.39;74.92;94897.39;108990;1250;95650;-72
2023/02/25 04:45:36;;;;;;;;;;;;;;;5.40;74.89;94899.33;108631;1251;103525;-76
2023/02/25 04:48:04;;;;;;;;;;;;;;;5.38;74.87;94913.31;108952;1251;101278;-72
2023/02/25 04:50:32;;;;;;;;;;;;;;;5.30;74.64;94917.97;108959;1249;99728;-74
2023/02/25 04:53:02;;;;;;;;;;;;;;;5.21;74.45;94915.77;108991;1250;95825;-72
2023/02/25 04:55:31;;;;;;;;;;;;;;;5.08;74.25;94911.40;109054;1250;95781;-72
2023/02/25 04:57:59;;;;;;;;;;;;;;;4.91;74.41;94925.42;109006;1250;103879;-73
2023/02/25 05:00:27;;;;;;;;;;;;;;;4.80;74.50;94939.89;109033;1250;101204;-76
2023/02/25 05:02:56;;;;;;;;;;;;;;;4.72;74.38;94941.28;108989;1250;99903;-72
2023/02/25 05:05:25;;;;;;;;;;;;;;;4.64;74.54;94949.20;109017;1250;95484;-75
2023/02/25 05:07:53;;;;;;;;;;;;;;;4.57;74.61;94952.30;109030;1250;95602;-71
2023/02/25 05:10:21;;;;;;;;;;;;;;;4.50;74.71;94944.98;108750;1250;102748;-76
2023/02/25 05:12:49;;;;;;;;;;;;;;;4.41;75.04;94952.30;109025;1249;101182;-74
2023/02/25 05:15:17;;;;;;;;;;;;;;;4.28;75.33;94965.45;108676;1250;101191;-75
2023/02/25 05:17:45;;;;;;;;;;;;;;;4.16;75.23;94973.67;109002;1249;95601;-73
2023/02/25 05:20:13;;;;;;;;;;;;;;;3.92;75.36;94981.61;109004;1251;96349;-72
2023/02/25 05:22:41;;;;;;;;;;;;;;;3.68;75.54;94979.79;109006;1250;103506;-73
2023/02/25 05:25:10;;;;;;;;;;;;;;;3.53;75.68;94971.96;109007;1249;101351;-72
2023/02/25 05:27:38;;;;;;;;;;;;;;;3.43;75.61;94988.76;109031;1250;99672;-72
2023/02/25 05:30:06;;;;;;;;;;;;;;;3.30;75.81;94989.27;108985;1250;95591;-72
2023/02/25 05:32:34;;;;;;;;;;;;;;;3.24;75.94;94996.14;108750;1251;95692;-74
2023/02/25 05:35:02;;;;;;;;;;;;;;;3.22;76.07;95001.55;108973;1251;103536;-73
2023/02/25 05:37:31;;;;;;;;;;;;;;;3.24;75.80;95013.41;109028;1250;101261;-72
2023/02/25 05:40:00;;;;;;;;;;;;;;;3.21;75.83;95015.73;108950;1249;99242;-72
2023/02/25 05:42:28;;;;;;;;;;;;;;;3.14;75.76;95020.06;108983;1249;95662;-72
2023/02/25 05:44:56;;;;;;;;;;;;;;;3.13;75.71;95026.14;109013;1251;95748;-72
2023/02/25 05:47:24;;;;;;;;;;;;;;;3.14;75.68;95033.02;108995;1250;103628;-74
2023/02/25 05:49:52;;;;;;;;;;;;;;;3.12;75.62;95031.20;108702;1251;100336;-75
2023/02/25 05:52:20;;;;;;;;;;;;;;;3.12;75.70;95037.77;108999;1250;99993;-76
2023/02/25 05:54:48;;;;;;;;;;;;;;;3.14;75.84;95046.35;108999;1250;95520;-73
2023/02/25 05:57:16;;;;;;;;;;;;;;;3.13;75.73;95044.70;109016;1250;95984;-73
2023/02/25 05:59:44;;;;;;;;;;;;;;;3.11;75.74;95050.64;109006;1250;112105;-72
2023/02/25 06:02:12;;;;;;;;;;;;;;;3.11;75.84;95050.98;109034;1250;101324;-72
2023/02/25 06:04:40;;;;;;;;;;;;;;;3.12;75.74;95056.05;108898;1251;109813;-74
2023/02/25 06:07:08;;;;;;;;;;;;;;;3.15;75.78;95049.15;108653;1251;95682;-75
2023/02/25 06:09:38;;;;;;;;;;;;;;;3.19;75.80;95036.47;108899;1251;97757;-73
2023/02/25 06:12:07;;;;;;;;;;;;;;;3.20;75.66;95034.30;108985;1251;102376;-72
2023/02/25 06:14:35;;;;;;;;;;;;;;;3.18;75.85;95039.36;109014;1250;101317;-73
2023/02/25 06:17:03;;;;;;;;;;;;;;;3.10;76.00;95046.76;109004;1249;99894;-72
2023/02/25 06:19:31;;;;;;;;;;;;;;;3.07;76.22;95051.73;108961;1250;95772;-75
2023/02/25 06:21:59;;;;;;;;;;;;;;;3.10;76.18;95059.47;108680;1250;96018;-74
2023/02/25 06:24:27;;;;;;;;;;;;;;;3.09;76.24;95054.43;108998;1250;103416;-72
2023/02/25 06:26:55;;;;;;;;;;;;;;;3.11;76.18;95048.71;109018;1251;101295;-72
2023/02/25 06:29:25;;;;;;;;;;;;;;;3.13;76.30;95057.73;108966;1249;99977;-74
2023/02/25 06:31:53;;;;;;;;;;;;;;;3.14;76.15;95060.04;108688;1251;95615;-72
2023/02/25 06:34:21;;;;;;;;;;;;;;;3.15;76.17;95058.45;108997;1249;95614;-73
2023/02/25 06:36:49;;;;;;;;;;;;;;;3.17;76.14;95045.48;109077;1251;103446;-72
2023/02/25 06:39:17;;;;;;;;;;;;;;;3.20;76.15;95048.48;109021;1251;100230;-72
2023/02/25 06:41:45;;;;;;;;;;;;;;;3.21;76.08;95047.95;108971;1250;99638;-72
2023/02/25 06:44:13;;;;;;;;;;;;;;;3.24;75.98;95056.52;108988;1251;95757;-74
2023/02/25 06:46:41;;;;;;;;;;;;;;;3.28;76.01;95064.59;108675;1251;96086;-75
2023/02/25 06:49:10;;;;;;;;;;;;;;;3.30;75.85;95068.43;108994;1249;102702;-75
2023/02/25 06:51:38;;;;;;;;;;;;;;;3.33;75.75;95068.69;109042;1250;101336;-74
2023/02/25 06:54:06;;;;;;;;;;;;;;;3.35;75.88;95070.42;108626;1250;99348;-72
2023/02/25 06:56:34;;;;;;;;;;;;;;;3.39;75.85;95070.83;109003;1250;95581;-74
2023/02/25 06:59:02;;;;;;;;;;;;;;;3.40;75.71;95064.23;108980;1250;96367;-72
2023/02/25 07:01:30;;;;;;;;;;;;;;;3.40;75.55;95064.61;109001;1249;103718;-73
2023/02/25 07:03:58;;;;;;;;;;;;;;;3.40;75.27;95054.48;108747;1257;101748;-73
2023/02/25 07:06:26;;;;;;;;;;;;;;;3.38;74.71;95050.45;108984;1250;99994;-74
2023/02/25 07:08:54;;;;;;;;;;;;;;;3.40;74.61;95049.19;109026;1250;95546;-73
2023/02/25 07:11:25;;;;;;;;;;;;;;;3.42;74.70;95050.55;109093;1250;95640;-73
2023/02/25 07:13:54;;;;;;;;;;;;;;;3.46;74.56;95046.83;108980;1250;103820;-72
2023/02/25 07:16:22;;;;;;;;;;;;;;;3.50;74.36;95044.54;108923;1251;101547;-73
2023/02/25 07:18:50;;;;;;;;;;;;;;;3.53;74.24;95051.56;108934;1250;99918;-72
2023/02/25 07:21:18;;;;;;;;;;;;;;;3.55;74.09;95047.82;108990;1250;95864;-73
2023/02/25 07:23:46;;;;;;;;;;;;;;;3.55;73.89;95044.67;109007;1251;95670;-72
2023/02/25 07:26:15;;;;;;;;;;;;;;;3.53;73.76;95042.82;109032;1250;103360;-73
2023/02/25 07:28:43;;;;;;;;;;;;;;;3.52;73.37;95039.71;109033;1250;101670;-73
2023/02/25 07:31:12;;;;;;;;;;;;;;;3.51;73.10;95042.90;108988;1251;100008;-72
2023/02/25 07:33:41;;;;;;;;;;;;;;;3.49;72.97;95053.48;108846;1250;95582;-73
2023/02/25 07:36:09;;;;;;;;;;;;;;;3.48;72.65;95056.77;109005;1251;96431;-72
2023/02/25 07:38:37;;;;;;;;;;;;;;;3.50;72.43;95059.52;109059;1250;103543;-72
2023/02/25 07:41:13;;;;;;;;;;;;;;;3.56;72.52;95050.34;109023;1250;101251;-72
2023/02/25 07:43:41;;;;;;;;;;;;;;;3.67;72.71;95047.08;108989;1250;99784;-72
2023/02/25 07:46:09;;;;;;;;;;;;;;;3.80;72.57;95056.63;109009;1250;95621;-73
2023/02/25 07:48:37;;;;;;;;;;;;;;;3.93;72.60;95053.29;108775;1251;95671;-74
2023/02/25 07:51:31;;;;;;;;;;;;;;;4.07;72.51;95043.98;109031;1250;103670;-73
2023/02/25 07:53:59;;;;;;;;;;;;;;;4.24;72.22;95034.10;108350;1256;101439;-75
2023/02/25 07:56:29;;;;;;;;;;;;;;;4.44;71.98;95043.60;108327;1256;100270;-73
2023/02/25 07:58:57;;;;;;;;;;;;;;;4.62;71.70;95036.23;108175;1257;217296;-73
2023/02/25 08:01:27;;;;;;;;;;;;;;;4.74;71.35;95033.69;108387;1256;96094;-72
2023/02/25 08:03:57;;;;;;;;;;;;;;;4.82;71.10;95040.61;108370;1257;102542;-72
2023/02/25 08:06:26;;;;;;;;;;;;;;;4.79;70.50;95048.35;108338;1256;101095;-73
2023/02/25 08:08:54;;;;;;;;;;;;;;;4.75;70.55;95051.92;108261;1256;98665;-73
2023/02/25 08:11:24;;;;;;;;;;;;;;;4.65;70.21;95043.27;108333;1256;95733;-73
2023/02/25 08:13:52;;;;;;;;;;;;;;;4.60;69.81;95035.84;108348;1257;95863;-73
2023/02/25 08:16:21;;;;;;;;;;;;;;;4.60;69.90;95043.23;108375;1256;103590;-72
2023/02/25 08:18:52;;;;;;;;;;;;;;;4.60;69.70;95031.39;108331;1256;101398;-76
2023/02/25 08:21:22;;;;;;;;;;;;;;;4.65;69.52;95035.52;108204;1257;99940;-72
2023/02/25 08:23:50;;;;;;;;;;;;;;;4.78;69.53;95035.38;108279;1260;95972;-71
2023/02/25 08:26:21;;;;;;;;;;;;;;;4.99;69.32;95033.08;108335;1257;95662;-71
2023/02/25 08:28:49;;;;;;;;;;;;;;;5.24;69.15;95030.62;108338;1257;103689;-74
2023/02/25 08:31:17;;;;;;;;;;;;;;;5.44;68.83;95021.06;108624;1251;101308;-76
2023/02/25 08:33:48;;;;;;;;;;;;;;;5.68;68.72;95019.56;108833;1251;100065;-71
2023/02/25 08:36:19;;;;;;;;;;;;;;;5.96;68.28;95018.44;108853;1251;95837;-73
2023/02/25 08:38:48;;;;;;;;;;;;;;;6.19;67.70;95020.41;108874;1251;96549;-76
2023/02/25 08:41:17;;;;;;;;;;;;;;;6.27;67.30;95021.84;108784;1252;103623;-75
2023/02/25 08:43:48;;;;;;;;;;;;;;;6.37;66.90;95018.26;108857;1251;101293;-77
2023/02/25 08:46:16;;;;;;;;;;;;;;;6.45;66.25;95007.41;108856;1251;99782;-75
2023/02/25 08:48:44;;;;;;;;;;;;;;;6.60;66.32;95010.00;108845;1251;95502;-75
2023/02/25 08:51:13;;;;;;;;;;;;;;;6.82;66.03;95007.80;108880;1251;95814;-73
2023/02/25 08:53:42;;;;;;;;;;;;;;;7.02;65.45;94997.36;108885;1251;103511;-74
2023/02/25 08:56:12;;;;;;;;;;;;;;;7.04;65.06;95001.14;108851;1251;101330;-73
2023/02/25 08:58:40;;;;;;;;;;;;;;;6.92;64.70;95010.95;108860;1251;99744;-73
2023/02/25 09:01:11;;;;;;;;;;;;;;;6.79;64.32;95015.11;108789;1251;95567;-73
2023/02/25 09:03:52;;;;;;;;;;;;;;;6.61;64.09;95015.05;108935;1251;95627;-75
2023/02/25 09:06:23;;;;;;;;;;;;;;;6.44;63.91;95022.28;108875;1251;103764;-77
2023/02/25 09:08:53;;;;;;;;;;;;;;;6.27;63.36;95026.98;108681;1251;102487;-76
2023/02/25 09:11:22;;;;;;;;;;;;;;;6.14;63.05;95037.11;108865;1251;99615;-75
2023/02/25 09:13:50;;;;;;;;;;;;;;;6.24;63.06;95031.01;108916;1250;95857;-76
2023/02/25 09:16:18;;;;;;;;;;;;;;;6.53;63.21;95041.08;109041;1250;95672;-73
2023/02/25 09:18:47;;;;;;;;;;;;;;;6.98;63.13;95038.81;109018;1251;103497;-74
2023/02/25 09:21:16;;;;;;;;;;;;;;;7.29;62.69;95037.80;109036;1253;100649;-75
2023/02/25 09:23:45;;;;;;;;;;;;;;;7.33;61.35;95036.19;109052;1251;99924;-74
2023/02/25 09:26:14;;;;;;;;;;;;;;;7.10;60.72;95040.77;108949;1251;95595;-75
2023/02/25 09:28:42;;;;;;;;;;;;;;;6.88;60.44;95044.27;109003;1251;95607;-74
2023/02/25 09:31:10;;;;;;;;;;;;;;;6.72;59.81;95043.59;108676;1249;102385;-73
2023/02/25 09:33:38;;;;;;;;;;;;;;;6.60;59.69;95046.55;108661;1251;100856;-73
2023/02/25 09:36:10;;;;;;;;;;;;;;;6.47;59.86;95049.50;108982;1251;99896;-75
2023/02/25 09:38:39;;;;;;;;;;;;;;;6.33;59.59;95055.80;108982;1250;95601;-72
2023/02/25 09:41:22;;;;;;;;;;;;;;;6.17;59.30;95053.54;109020;1251;96552;-75
2023/02/25 09:43:59;;;;;;;;;;;;;;;5.95;58.88;95055.60;108913;1254;103473;-74
2023/02/25 09:46:28;;;;;;;;;;;;;;;5.88;58.94;95059.11;109034;1250;101182;-72
2023/02/25 09:49:22;;;;;;;;;;;;;;;5.88;58.76;95056.80;109002;1251;100355;-74
2023/02/25 09:51:57;;;;;;;;;;;;;;;5.84;58.42;95054.36;108259;1259;95905;-73
2023/02/25 09:54:30;;;;;;;;;;;;;;;5.84;58.54;95054.81;108243;1259;96464;-73
2023/02/25 09:57:01;;;;;;;;;;;;;;;5.91;58.38;95053.27;108309;1258;103671;-72
2023/02/25 09:59:29;;;;;;;;;;;;;;;6.02;58.21;95051.67;108270;1261;101441;-73
2023/02/25 10:02:15;;;;;;;;;;;;;;;6.17;58.40;95050.48;108278;1260;100143;-73
2023/02/25 10:04:52;;;;;;;;;;;;;;;6.22;58.04;95049.88;108288;1259;95635;-76
2023/02/25 10:07:24;;;;;;;;;;;;;;;6.22;57.79;95049.23;108282;1259;96625;-77
2023/02/25 10:09:59;;;;;;;;;;;;;;;6.20;56.87;95048.39;108300;1260;102585;-75
2023/02/25 10:12:32;;;;;;;;;;;;;;;6.23;56.99;95051.23;108286;1261;101673;-75
2023/02/25 10:15:00;;;;;;;;;;;;;;;6.24;57.10;95051.95;108239;1259;99759;-74
2023/02/25 10:17:28;;;;;;;;;;;;;;;6.22;57.27;95052.60;108274;1260;95947;-73
2023/02/25 10:20:17;;;;;;;;;;;;;;;6.18;57.42;95054.95;108314;1259;96123;-73
2023/02/25 10:23:09;;;;;;;;;;;;;;;6.10;57.50;95061.51;108308;1260;103440;-74
2023/02/25 10:25:40;;;;;;;;;;;;;;;6.01;57.22;95063.65;108276;1259;101554;-75
2023/02/25 10:28:13;;;;;;;;;;;;;;;5.89;57.10;95066.17;108328;1251;99169;-74
2023/02/25 10:30:41;;;;;;;;;;;;;;;5.84;56.83;95066.55;108693;1251;95631;-74
2023/02/25 10:33:20;;;;;;;;;;;;;;;5.82;56.67;95065.06;108848;1251;96543;-73
2023/02/25 10:35:50;;;;;;;;;;;;;;;5.97;57.12;95057.67;108910;1255;103346;-73
2023/02/25 10:38:18;;;;;;;;;;;;;;;6.26;57.01;95056.64;108895;1251;101532;-76
2023/02/25 10:40:46;;;;;;;;;;;;;;;6.57;57.01;95058.36;108599;1251;100708;-74
2023/02/25 10:43:21;;;;;;;;;;;;;;;6.75;56.80;95055.64;108859;1255;95663;-73
2023/02/25 10:46:00;;;;;;;;;;;;;;;6.79;56.45;95054.31;108882;1251;95632;-76
2023/02/25 10:48:29;;;;;;;;;;;;;;;6.78;56.12;95053.70;108738;1253;102322;-73
2023/02/25 10:51:13;;;;;;;;;;;;;;;6.76;55.95;95052.55;108882;1251;101505;-74
2023/02/25 10:54:00;;;;;;;;;;;;;;;6.83;56.07;95054.75;108830;1251;99989;-77
2023/02/25 10:56:31;;;;;;;;;;;;;;;6.83;56.03;95055.34;108847;1253;95555;-76
2023/02/25 10:59:07;;;;;;;;;;;;;;;6.88;55.98;95052.89;108731;1251;95650;-76
2023/02/25 11:01:46;;;;;;;;;;;;;;;6.81;55.67;95059.06;108839;1254;103768;-74
2023/02/25 11:04:18;;;;;;;;;;;;;;;6.64;55.47;95067.90;108834;1254;101664;-73
2023/02/25 11:06:47;;;;;;;;;;;;;;;6.43;54.98;95055.27;108629;1251;99887;-75
2023/02/25 11:09:21;;;;;;;;;;;;;;;6.27;55.34;95059.34;108862;1254;95578;-73
2023/02/25 11:11:55;;;;;;;;;;;;;;;6.25;55.69;95052.13;108821;1253;95550;-73
2023/02/25 11:14:29;;;;;;;;;;;;;;;6.24;55.80;95057.75;108974;1252;103700;-75
2023/02/25 11:17:06;;;;;;;;;;;;;;;6.21;55.71;95050.77;109035;1251;101559;-74
2023/02/25 11:19:38;;;;;;;;;;;;;;;6.25;56.01;95047.14;108701;1251;99500;-73
2023/02/25 11:22:08;;;;;;;;;;;;;;;6.33;56.13;95046.86;108766;1251;95584;-76
2023/02/25 11:24:37;;;;;;;;;;;;;;;6.34;56.09;95049.48;108948;1250;95749;-73
2023/02/25 11:27:07;;;;;;;;;;;;;;;6.30;56.07;95058.74;109051;1250;103494;-73
2023/02/25 11:29:40;;;;;;;;;;;;;;;6.28;56.20;95063.48;108753;1250;101442;-73
2023/02/25 11:32:11;;;;;;;;;;;;;;;6.15;56.20;95067.27;109013;1250;99019;-73
2023/02/25 11:34:50;;;;;;;;;;;;;;;6.01;56.27;95074.70;108995;1250;95524;-73
2023/02/25 11:37:35;;;;;;;;;;;;;;;5.95;56.62;95075.79;108716;1251;96036;-72
2023/02/25 11:40:20;;;;;;;;;;;;;;;5.79;56.49;95084.95;109078;1251;103683;-72
2023/02/25 11:43:15;;;;;;;;;;;;;;;5.64;56.36;95077.14;108871;1251;100291;-74
2023/02/25 11:46:10;;;;;;;;;;;;;;;5.54;56.41;95074.31;109041;1251;99963;-74
2023/02/25 11:48:49;;;;;;;;;;;;;;;5.49;56.60;95075.69;108276;1259;95630;-73
2023/02/25 11:51:20;;;;;;;;;;;;;;;5.46;56.74;95085.36;108280;1260;95788;-73
2023/02/25 11:54:06;;;;;;;;;;;;;;;5.44;56.86;95089.95;108292;1259;103695;-75
2023/02/25 11:56:39;;;;;;;;;;;;;;;5.45;56.63;95094.19;108276;1260;101057;-73
2023/02/25 11:59:28;;;;;;;;;;;;;;;5.44;56.43;95085.92;108228;1260;108874;-76
2023/02/25 12:02:07;;;;;;;;;;;;;;;5.50;56.38;95096.00;108212;1259;95614;-73
2023/02/25 12:04:35;;;;;;;;;;;;;;;5.53;56.28;95096.97;108164;1260;95722;-76
2023/02/25 12:07:06;;;;;;;;;;;;;;;5.57;55.97;95088.29;108275;1259;103648;-74
2023/02/25 12:09:39;;;;;;;;;;;;;;;5.73;55.95;95084.38;108130;1260;101233;-76
2023/02/25 12:12:22;;;;;;;;;;;;;;;5.82;55.72;95085.83;108229;1259;99835;-75
2023/02/25 12:14:59;;;;;;;;;;;;;;;5.85;55.59;95089.19;108267;1259;95806;-73
2023/02/25 12:17:32;;;;;;;;;;;;;;;5.82;55.26;95101.48;108290;1259;96205;-73
2023/02/25 12:20:19;;;;;;;;;;;;;;;5.80;55.01;95094.06;108260;1260;102349;-73
2023/02/25 12:23:06;;;;;;;;;;;;;;;5.85;55.24;95095.11;108274;1260;101539;-73
2023/02/25 12:25:35;;;;;;;;;;;;;;;5.93;55.08;95095.20;108473;1251;99019;-74
2023/02/25 12:28:22;;;;;;;;;;;;;;;6.26;55.19;95093.14;108999;1250;95615;-77
2023/02/25 12:30:50;;;;;;;;;;;;;;;6.85;55.08;95083.04;109036;1251;95717;-73
2023/02/25 12:33:22;;;;;;;;;;;;;;;7.16;54.29;95081.80;109052;1250;103681;-71
2023/02/25 12:35:56;;;;;;;;;;;;;;;7.49;53.64;95094.61;108696;1251;101469;-74
2023/02/25 12:38:44;;;;;;;;;;;;;;;7.83;53.08;95095.30;108688;1249;99375;-73
2023/02/25 12:41:21;;;;;;;;;;;;;;;8.15;52.28;95098.53;108989;1249;95814;-74
2023/02/25 12:44:07;;;;;;;;;;;;;;;8.35;52.07;95097.85;109030;1251;95570;-74
2023/02/25 12:46:36;;;;;;;;;;;;;;;8.44;50.39;95087.69;109041;1249;103569;-73
2023/02/25 12:49:22;;;;;;;;;;;;;;;8.46;50.13;95089.80;109037;1251;101087;-73
2023/02/25 12:51:59;;;;;;;;;;;;;;;8.30;50.25;95100.15;108981;1250;99159;-76
2023/02/25 12:54:46;;;;;;;;;;;;;;;8.42;50.17;95089.97;108986;1250;95751;-76
2023/02/25 12:57:26;;;;;;;;;;;;;;;8.53;50.39;95078.41;108967;1250;95641;-77
2023/02/25 13:00:11;;;;;;;;;;;;;;;8.69;50.40;95090.82;108817;1250;102729;-73
2023/02/25 13:03:03;;;;;;;;;;;;;;;8.88;50.26;95085.98;108734;1251;101261;-73
2023/02/25 13:05:37;;;;;;;;;;;;;;;8.97;49.50;95089.71;109049;1251;99870;-73